sensor_id;sensor_type;location;lat;lon;timestamp;temperature;humidity
51733;DHT22;39139;53.144;6.244;2023-04-24T00:00:01;11.00;99.90
51733;DHT22;39139;53.144;6.244;2023-04-24T00:02:28;11.00;99.90
51733;DHT22;39139;53.144;6.244;2023-04-24T00:04:54;11.00;99.90
51733;DHT22;39139;53.144;6.244;2023-04-24T00:07:20;11.00;99.90
51733;DHT22;39139;53.144;6.244;2023-04-24T00:09:46;11.10;99.90
51733;DHT22;39139;53.144;6.244;2023-04-24T00:12:11;11.00;99.90
51733;DHT22;39139;53.144;6.244;2023-04-24T00:14:40;10.90;99.90
51733;DHT22;39139;53.144;6.244;2023-04-24T00:17:06;10.80;99.90
51733;DHT22;39139;53.144;6.244;2023-04-24T00:19:31;10.90;99.90
51733;DHT22;39139;53.144;6.244;2023-04-24T00:21:57;11.00;99.90
51733;DHT22;39139;53.144;6.244;2023-04-24T00:24:22;11.00;99.90
51733;DHT22;39139;53.144;6.244;2023-04-24T00:26:48;10.90;99.90
51733;DHT22;39139;53.144;6.244;2023-04-24T00:29:14;10.90;99.90
51733;DHT22;39139;53.144;6.244;2023-04-24T00:31:40;10.80;99.90
51733;DHT22;39139;53.144;6.244;2023-04-24T00:34:05;10.80;99.90
51733;DHT22;39139;53.144;6.244;2023-04-24T00:36:31;10.80;99.90
51733;DHT22;39139;53.144;6.244;2023-04-24T00:38:58;10.80;99.90
51733;DHT22;39139;53.144;6.244;2023-04-24T00:41:25;10.80;99.90
51733;DHT22;39139;53.144;6.244;2023-04-24T00:43:52;10.80;99.90
51733;DHT22;39139;53.144;6.244;2023-04-24T00:46:19;10.70;99.90
51733;DHT22;39139;53.144;6.244;2023-04-24T00:48:45;10.70;99.90
51733;DHT22;39139;53.144;6.244;2023-04-24T00:51:11;10.70;99.90
51733;DHT22;39139;53.144;6.244;2023-04-24T00:53:37;10.70;99.90
51733;DHT22;39139;53.144;6.244;2023-04-24T00:56:02;10.60;99.90
51733;DHT22;39139;53.144;6.244;2023-04-24T00:58:29;10.60;99.90
51733;DHT22;39139;53.144;6.244;2023-04-24T01:00:56;10.50;99.90
51733;DHT22;39139;53.144;6.244;2023-04-24T01:03:26;10.50;99.90
51733;DHT22;39139;53.144;6.244;2023-04-24T01:05:54;10.50;99.90
51733;DHT22;39139;53.144;6.244;2023-04-24T01:08:25;10.50;99.90
51733;DHT22;39139;53.144;6.244;2023-04-24T01:10:52;10.40;99.90
51733;DHT22;39139;53.144;6.244;2023-04-24T01:13:21;10.40;99.90
51733;DHT22;39139;53.144;6.244;2023-04-24T01:15:49;10.30;99.90
51733;DHT22;39139;53.144;6.244;2023-04-24T01:18:15;10.40;99.90
51733;DHT22;39139;53.144;6.244;2023-04-24T01:20:42;10.30;99.90
51733;DHT22;39139;53.144;6.244;2023-04-24T01:23:10;10.30;99.90
51733;DHT22;39139;53.144;6.244;2023-04-24T01:25:36;10.30;99.90
51733;DHT22;39139;53.144;6.244;2023-04-24T01:28:03;10.30;99.90
51733;DHT22;39139;53.144;6.244;2023-04-24T01:30:31;10.30;99.90
51733;DHT22;39139;53.144;6.244;2023-04-24T01:32:58;10.30;99.90
51733;DHT22;39139;53.144;6.244;2023-04-24T01:35:24;10.20;99.90
51733;DHT22;39139;53.144;6.244;2023-04-24T01:37:50;10.20;99.90
51733;DHT22;39139;53.144;6.244;2023-04-24T01:40:16;10.20;99.90
51733;DHT22;39139;53.144;6.244;2023-04-24T01:42:42;10.20;99.90
51733;DHT22;39139;53.144;6.244;2023-04-24T01:45:10;10.20;99.90
51733;DHT22;39139;53.144;6.244;2023-04-24T01:47:36;10.20;99.90
51733;DHT22;39139;53.144;6.244;2023-04-24T01:50:04;10.20;99.90
51733;DHT22;39139;53.144;6.244;2023-04-24T01:52:30;10.20;99.90
51733;DHT22;39139;53.144;6.244;2023-04-24T01:55:00;10.20;99.90
51733;DHT22;39139;53.144;6.244;2023-04-24T01:57:26;10.20;99.90
51733;DHT22;39139;53.144;6.244;2023-04-24T01:59:51;10.20;99.90
51733;DHT22;39139;53.144;6.244;2023-04-24T02:02:17;10.20;99.90
51733;DHT22;39139;53.144;6.244;2023-04-24T02:04:43;10.20;99.90
51733;DHT22;39139;53.144;6.244;2023-04-24T02:07:09;10.20;99.90
51733;DHT22;39139;53.144;6.244;2023-04-24T02:09:34;10.20;99.90
51733;DHT22;39139;53.144;6.244;2023-04-24T02:12:00;10.00;99.90
51733;DHT22;39139;53.144;6.244;2023-04-24T02:14:26;10.20;99.90
51733;DHT22;39139;53.144;6.244;2023-04-24T02:16:51;10.30;99.90
51733;DHT22;39139;53.144;6.244;2023-04-24T02:19:18;10.20;99.90
51733;DHT22;39139;53.144;6.244;2023-04-24T02:21:44;10.30;99.90
51733;DHT22;39139;53.144;6.244;2023-04-24T02:24:10;10.20;99.90
51733;DHT22;39139;53.144;6.244;2023-04-24T02:26:36;10.20;99.90
51733;DHT22;39139;53.144;6.244;2023-04-24T02:29:01;10.20;99.90
51733;DHT22;39139;53.144;6.244;2023-04-24T02:31:27;10.20;99.90
51733;DHT22;39139;53.144;6.244;2023-04-24T02:33:53;10.20;99.90
51733;DHT22;39139;53.144;6.244;2023-04-24T02:36:18;10.20;99.90
51733;DHT22;39139;53.144;6.244;2023-04-24T02:38:44;10.10;99.90
51733;DHT22;39139;53.144;6.244;2023-04-24T02:41:10;10.20;99.90
51733;DHT22;39139;53.144;6.244;2023-04-24T02:43:36;10.10;99.90
51733;DHT22;39139;53.144;6.244;2023-04-24T02:46:02;10.20;99.90
51733;DHT22;39139;53.144;6.244;2023-04-24T02:48:28;10.20;99.90
51733;DHT22;39139;53.144;6.244;2023-04-24T02:50:54;10.20;99.90
51733;DHT22;39139;53.144;6.244;2023-04-24T02:53:20;10.10;99.90
51733;DHT22;39139;53.144;6.244;2023-04-24T02:55:46;10.30;99.90
51733;DHT22;39139;53.144;6.244;2023-04-24T02:58:11;10.20;99.90
51733;DHT22;39139;53.144;6.244;2023-04-24T03:00:38;10.20;99.90
51733;DHT22;39139;53.144;6.244;2023-04-24T03:03:05;10.30;99.90
51733;DHT22;39139;53.144;6.244;2023-04-24T03:05:30;10.20;99.90
51733;DHT22;39139;53.144;6.244;2023-04-24T03:07:56;10.20;99.90
51733;DHT22;39139;53.144;6.244;2023-04-24T03:10:22;10.20;99.90
51733;DHT22;39139;53.144;6.244;2023-04-24T03:12:48;10.20;99.90
51733;DHT22;39139;53.144;6.244;2023-04-24T03:15:14;10.20;99.90
51733;DHT22;39139;53.144;6.244;2023-04-24T03:17:39;10.20;99.90
51733;DHT22;39139;53.144;6.244;2023-04-24T03:20:06;10.20;99.90
51733;DHT22;39139;53.144;6.244;2023-04-24T03:22:32;10.20;99.90
51733;DHT22;39139;53.144;6.244;2023-04-24T03:24:59;10.30;99.90
51733;DHT22;39139;53.144;6.244;2023-04-24T03:27:24;10.20;99.90
51733;DHT22;39139;53.144;6.244;2023-04-24T03:29:50;10.20;99.90
51733;DHT22;39139;53.144;6.244;2023-04-24T03:32:22;10.30;99.90
51733;DHT22;39139;53.144;6.244;2023-04-24T03:34:48;10.30;99.90
51733;DHT22;39139;53.144;6.244;2023-04-24T03:37:15;10.20;99.90
51733;DHT22;39139;53.144;6.244;2023-04-24T03:39:41;10.30;99.90
51733;DHT22;39139;53.144;6.244;2023-04-24T03:42:06;10.30;99.90
51733;DHT22;39139;53.144;6.244;2023-04-24T03:44:35;10.20;99.90
51733;DHT22;39139;53.144;6.244;2023-04-24T03:47:01;10.30;99.90
51733;DHT22;39139;53.144;6.244;2023-04-24T03:49:27;10.20;99.90
51733;DHT22;39139;53.144;6.244;2023-04-24T03:51:53;10.20;99.90
51733;DHT22;39139;53.144;6.244;2023-04-24T03:54:19;10.00;99.90
51733;DHT22;39139;53.144;6.244;2023-04-24T03:56:48;10.20;99.90
51733;DHT22;39139;53.144;6.244;2023-04-24T03:59:13;10.20;99.90
51733;DHT22;39139;53.144;6.244;2023-04-24T04:01:39;10.20;99.90
51733;DHT22;39139;53.144;6.244;2023-04-24T04:04:05;10.20;99.90
51733;DHT22;39139;53.144;6.244;2023-04-24T04:06:31;10.20;99.90
51733;DHT22;39139;53.144;6.244;2023-04-24T04:08:58;10.20;99.90
51733;DHT22;39139;53.144;6.244;2023-04-24T04:11:24;10.20;99.90
51733;DHT22;39139;53.144;6.244;2023-04-24T04:13:50;10.30;99.90
51733;DHT22;39139;53.144;6.244;2023-04-24T04:16:16;10.40;99.90
51733;DHT22;39139;53.144;6.244;2023-04-24T04:18:45;10.30;99.90
51733;DHT22;39139;53.144;6.244;2023-04-24T04:21:11;10.20;99.90
51733;DHT22;39139;53.144;6.244;2023-04-24T04:23:36;10.30;99.90
51733;DHT22;39139;53.144;6.244;2023-04-24T04:26:03;10.40;99.90
51733;DHT22;39139;53.144;6.244;2023-04-24T04:28:29;10.40;99.90
51733;DHT22;39139;53.144;6.244;2023-04-24T04:30:57;10.40;99.90
51733;DHT22;39139;53.144;6.244;2023-04-24T04:33:23;10.30;99.90
51733;DHT22;39139;53.144;6.244;2023-04-24T04:35:50;10.40;99.90
51733;DHT22;39139;53.144;6.244;2023-04-24T04:38:18;10.40;99.90
51733;DHT22;39139;53.144;6.244;2023-04-24T04:40:47;10.30;99.90
51733;DHT22;39139;53.144;6.244;2023-04-24T04:43:13;10.20;99.90
51733;DHT22;39139;53.144;6.244;2023-04-24T04:45:40;10.30;99.90
51733;DHT22;39139;53.144;6.244;2023-04-24T04:48:08;10.20;99.90
51733;DHT22;39139;53.144;6.244;2023-04-24T04:50:39;10.10;99.90
51733;DHT22;39139;53.144;6.244;2023-04-24T04:53:04;10.30;99.90
51733;DHT22;39139;53.144;6.244;2023-04-24T04:55:31;10.30;99.90
51733;DHT22;39139;53.144;6.244;2023-04-24T04:57:56;10.30;99.90
51733;DHT22;39139;53.144;6.244;2023-04-24T05:00:22;10.40;99.90
51733;DHT22;39139;53.144;6.244;2023-04-24T05:02:51;10.30;99.90
51733;DHT22;39139;53.144;6.244;2023-04-24T05:05:17;10.30;99.90
51733;DHT22;39139;53.144;6.244;2023-04-24T05:07:43;10.30;99.90
51733;DHT22;39139;53.144;6.244;2023-04-24T05:10:09;10.30;99.90
51733;DHT22;39139;53.144;6.244;2023-04-24T05:12:36;10.30;99.90
51733;DHT22;39139;53.144;6.244;2023-04-24T05:15:02;10.30;99.90
51733;DHT22;39139;53.144;6.244;2023-04-24T05:17:28;10.30;99.90
51733;DHT22;39139;53.144;6.244;2023-04-24T05:19:54;10.20;99.90
51733;DHT22;39139;53.144;6.244;2023-04-24T05:22:19;10.30;99.90
51733;DHT22;39139;53.144;6.244;2023-04-24T05:24:46;10.20;99.90
51733;DHT22;39139;53.144;6.244;2023-04-24T05:27:15;10.30;99.90
51733;DHT22;39139;53.144;6.244;2023-04-24T05:29:44;10.10;99.90
51733;DHT22;39139;53.144;6.244;2023-04-24T05:32:10;10.20;99.90
51733;DHT22;39139;53.144;6.244;2023-04-24T05:34:36;10.20;99.90
51733;DHT22;39139;53.144;6.244;2023-04-24T05:37:02;10.20;99.90
51733;DHT22;39139;53.144;6.244;2023-04-24T05:39:28;10.20;99.90
51733;DHT22;39139;53.144;6.244;2023-04-24T05:41:53;10.20;99.90
51733;DHT22;39139;53.144;6.244;2023-04-24T05:44:20;10.20;99.90
51733;DHT22;39139;53.144;6.244;2023-04-24T05:46:46;10.30;99.90
51733;DHT22;39139;53.144;6.244;2023-04-24T05:49:11;10.20;99.90
51733;DHT22;39139;53.144;6.244;2023-04-24T05:51:37;10.10;99.90
51733;DHT22;39139;53.144;6.244;2023-04-24T05:54:04;10.10;99.90
51733;DHT22;39139;53.144;6.244;2023-04-24T05:56:30;10.10;99.90
51733;DHT22;39139;53.144;6.244;2023-04-24T05:58:56;10.10;99.90
51733;DHT22;39139;53.144;6.244;2023-04-24T06:01:22;10.20;99.90
51733;DHT22;39139;53.144;6.244;2023-04-24T06:03:48;10.20;99.90
51733;DHT22;39139;53.144;6.244;2023-04-24T06:06:13;10.20;99.90
51733;DHT22;39139;53.144;6.244;2023-04-24T06:08:39;10.20;99.90
51733;DHT22;39139;53.144;6.244;2023-04-24T06:11:04;10.20;99.90
51733;DHT22;39139;53.144;6.244;2023-04-24T06:13:31;10.20;99.90
51733;DHT22;39139;53.144;6.244;2023-04-24T06:15:57;10.20;99.90
51733;DHT22;39139;53.144;6.244;2023-04-24T06:18:22;10.20;99.90
51733;DHT22;39139;53.144;6.244;2023-04-24T06:20:48;10.20;99.90
51733;DHT22;39139;53.144;6.244;2023-04-24T06:23:14;10.20;99.90
51733;DHT22;39139;53.144;6.244;2023-04-24T06:25:40;10.10;99.90
51733;DHT22;39139;53.144;6.244;2023-04-24T06:28:06;10.20;99.90
51733;DHT22;39139;53.144;6.244;2023-04-24T06:30:31;10.20;99.90
51733;DHT22;39139;53.144;6.244;2023-04-24T06:32:57;10.20;99.90
51733;DHT22;39139;53.144;6.244;2023-04-24T06:35:23;10.10;99.90
51733;DHT22;39139;53.144;6.244;2023-04-24T06:37:48;10.20;99.90
51733;DHT22;39139;53.144;6.244;2023-04-24T06:40:14;10.20;99.90
51733;DHT22;39139;53.144;6.244;2023-04-24T06:42:40;10.10;99.90
51733;DHT22;39139;53.144;6.244;2023-04-24T06:45:06;10.10;99.90
51733;DHT22;39139;53.144;6.244;2023-04-24T06:47:32;10.10;99.90
51733;DHT22;39139;53.144;6.244;2023-04-24T06:49:58;10.10;99.90
51733;DHT22;39139;53.144;6.244;2023-04-24T06:52:24;10.10;99.90
51733;DHT22;39139;53.144;6.244;2023-04-24T06:54:49;10.10;99.90
51733;DHT22;39139;53.144;6.244;2023-04-24T06:57:15;10.10;99.90
51733;DHT22;39139;53.144;6.244;2023-04-24T06:59:44;10.10;99.90
51733;DHT22;39139;53.144;6.244;2023-04-24T07:02:09;10.10;99.90
51733;DHT22;39139;53.144;6.244;2023-04-24T07:04:35;10.00;99.90
51733;DHT22;39139;53.144;6.244;2023-04-24T07:07:00;10.00;99.90
51733;DHT22;39139;53.144;6.244;2023-04-24T07:09:26;10.00;99.90
51733;DHT22;39139;53.144;6.244;2023-04-24T07:11:53;10.20;99.90
51733;DHT22;39139;53.144;6.244;2023-04-24T07:14:19;10.00;99.90
51733;DHT22;39139;53.144;6.244;2023-04-24T07:16:45;10.00;99.90
51733;DHT22;39139;53.144;6.244;2023-04-24T07:19:11;9.80;99.90
51733;DHT22;39139;53.144;6.244;2023-04-24T07:21:36;10.00;99.90
51733;DHT22;39139;53.144;6.244;2023-04-24T07:24:02;10.00;99.90
51733;DHT22;39139;53.144;6.244;2023-04-24T07:26:31;9.90;99.90
51733;DHT22;39139;53.144;6.244;2023-04-24T07:28:56;9.90;99.90
51733;DHT22;39139;53.144;6.244;2023-04-24T07:31:22;9.80;99.90
51733;DHT22;39139;53.144;6.244;2023-04-24T07:33:48;9.80;99.90
51733;DHT22;39139;53.144;6.244;2023-04-24T07:36:14;9.80;99.90
51733;DHT22;39139;53.144;6.244;2023-04-24T07:38:45;9.80;99.90
51733;DHT22;39139;53.144;6.244;2023-04-24T07:41:11;9.80;99.90
51733;DHT22;39139;53.144;6.244;2023-04-24T07:43:37;9.70;99.90
51733;DHT22;39139;53.144;6.244;2023-04-24T07:46:03;9.70;99.90
51733;DHT22;39139;53.144;6.244;2023-04-24T07:48:28;9.70;99.90
51733;DHT22;39139;53.144;6.244;2023-04-24T07:50:54;9.70;99.90
51733;DHT22;39139;53.144;6.244;2023-04-24T07:53:20;9.70;99.90
51733;DHT22;39139;53.144;6.244;2023-04-24T07:55:46;9.70;99.90
51733;DHT22;39139;53.144;6.244;2023-04-24T07:58:11;9.70;99.90
51733;DHT22;39139;53.144;6.244;2023-04-24T08:00:37;9.60;99.90
51733;DHT22;39139;53.144;6.244;2023-04-24T08:03:02;9.60;99.90
51733;DHT22;39139;53.144;6.244;2023-04-24T08:05:28;9.60;99.90
51733;DHT22;39139;53.144;6.244;2023-04-24T08:07:54;9.70;99.90
51733;DHT22;39139;53.144;6.244;2023-04-24T08:10:23;9.60;99.90
51733;DHT22;39139;53.144;6.244;2023-04-24T08:12:49;9.60;99.90
51733;DHT22;39139;53.144;6.244;2023-04-24T08:15:15;9.60;99.90
51733;DHT22;39139;53.144;6.244;2023-04-24T08:17:41;9.60;99.90
51733;DHT22;39139;53.144;6.244;2023-04-24T08:20:08;9.60;99.90
51733;DHT22;39139;53.144;6.244;2023-04-24T08:22:39;9.50;99.90
51733;DHT22;39139;53.144;6.244;2023-04-24T08:25:05;9.50;99.90
51733;DHT22;39139;53.144;6.244;2023-04-24T08:27:31;9.50;99.90
51733;DHT22;39139;53.144;6.244;2023-04-24T08:29:57;9.50;99.90
51733;DHT22;39139;53.144;6.244;2023-04-24T08:32:24;9.50;99.90
51733;DHT22;39139;53.144;6.244;2023-04-24T08:34:49;9.40;99.90
51733;DHT22;39139;53.144;6.244;2023-04-24T08:37:18;9.40;99.90
51733;DHT22;39139;53.144;6.244;2023-04-24T08:39:43;9.50;99.90
51733;DHT22;39139;53.144;6.244;2023-04-24T08:42:11;9.50;99.90
51733;DHT22;39139;53.144;6.244;2023-04-24T08:44:36;9.50;99.90
51733;DHT22;39139;53.144;6.244;2023-04-24T08:47:03;9.50;99.90
51733;DHT22;39139;53.144;6.244;2023-04-24T08:49:29;9.50;99.90
51733;DHT22;39139;53.144;6.244;2023-04-24T08:51:55;9.50;99.90
51733;DHT22;39139;53.144;6.244;2023-04-24T08:54:21;9.60;99.90
51733;DHT22;39139;53.144;6.244;2023-04-24T08:56:47;9.60;99.90
51733;DHT22;39139;53.144;6.244;2023-04-24T08:59:15;9.60;99.90
51733;DHT22;39139;53.144;6.244;2023-04-24T09:01:41;9.70;99.90
51733;DHT22;39139;53.144;6.244;2023-04-24T09:04:09;9.80;99.90
51733;DHT22;39139;53.144;6.244;2023-04-24T09:06:38;9.80;99.90
51733;DHT22;39139;53.144;6.244;2023-04-24T09:09:04;9.80;99.90
51733;DHT22;39139;53.144;6.244;2023-04-24T09:11:32;9.80;99.90
51733;DHT22;39139;53.144;6.244;2023-04-24T09:14:01;9.80;99.90
51733;DHT22;39139;53.144;6.244;2023-04-24T09:16:27;9.70;99.90
51733;DHT22;39139;53.144;6.244;2023-04-24T09:18:53;9.70;99.90
51733;DHT22;39139;53.144;6.244;2023-04-24T09:21:21;9.70;99.90
51733;DHT22;39139;53.144;6.244;2023-04-24T09:23:58;9.70;99.90
51733;DHT22;39139;53.144;6.244;2023-04-24T09:26:24;9.80;99.90
51733;DHT22;39139;53.144;6.244;2023-04-24T09:28:50;9.60;99.90
51733;DHT22;39139;53.144;6.244;2023-04-24T09:31:19;9.70;99.90
51733;DHT22;39139;53.144;6.244;2023-04-24T09:34:05;9.60;99.90
51733;DHT22;39139;53.144;6.244;2023-04-24T09:36:42;9.70;99.90
51733;DHT22;39139;53.144;6.244;2023-04-24T09:39:11;9.70;99.90
51733;DHT22;39139;53.144;6.244;2023-04-24T09:41:57;9.70;99.90
51733;DHT22;39139;53.144;6.244;2023-04-24T09:44:25;9.80;99.90
51733;DHT22;39139;53.144;6.244;2023-04-24T09:46:59;9.90;99.90
51733;DHT22;39139;53.144;6.244;2023-04-24T09:51:52;9.90;99.90
51733;DHT22;39139;53.144;6.244;2023-04-24T09:54:27;10.20;99.90
51733;DHT22;39139;53.144;6.244;2023-04-24T09:56:54;10.20;99.90
51733;DHT22;39139;53.144;6.244;2023-04-24T09:59:20;10.20;99.90
51733;DHT22;39139;53.144;6.244;2023-04-24T10:01:46;10.10;99.90
51733;DHT22;39139;53.144;6.244;2023-04-24T10:04:18;10.20;99.90
51733;DHT22;39139;53.144;6.244;2023-04-24T10:06:44;10.10;99.90
51733;DHT22;39139;53.144;6.244;2023-04-24T10:09:11;10.30;99.90
51733;DHT22;39139;53.144;6.244;2023-04-24T10:11:41;10.40;99.90
51733;DHT22;39139;53.144;6.244;2023-04-24T10:14:09;10.40;99.90
51733;DHT22;39139;53.144;6.244;2023-04-24T10:16:36;10.50;99.90
51733;DHT22;39139;53.144;6.244;2023-04-24T10:19:03;10.40;99.90
51733;DHT22;39139;53.144;6.244;2023-04-24T10:21:29;10.60;99.90
51733;DHT22;39139;53.144;6.244;2023-04-24T10:23:55;10.40;99.90
51733;DHT22;39139;53.144;6.244;2023-04-24T10:26:22;10.40;99.90
51733;DHT22;39139;53.144;6.244;2023-04-24T10:28:48;10.40;99.90
51733;DHT22;39139;53.144;6.244;2023-04-24T10:31:14;10.50;99.90
51733;DHT22;39139;53.144;6.244;2023-04-24T10:33:42;10.60;99.90
51733;DHT22;39139;53.144;6.244;2023-04-24T10:36:10;10.70;99.90
51733;DHT22;39139;53.144;6.244;2023-04-24T10:38:37;10.50;99.90
51733;DHT22;39139;53.144;6.244;2023-04-24T10:41:08;10.30;99.90
51733;DHT22;39139;53.144;6.244;2023-04-24T10:43:35;10.50;99.90
51733;DHT22;39139;53.144;6.244;2023-04-24T10:46:05;10.50;99.90
51733;DHT22;39139;53.144;6.244;2023-04-24T10:48:31;10.50;99.90
51733;DHT22;39139;53.144;6.244;2023-04-24T10:50:58;10.40;99.90
51733;DHT22;39139;53.144;6.244;2023-04-24T10:53:27;10.40;99.90
51733;DHT22;39139;53.144;6.244;2023-04-24T10:56:07;10.50;99.90
51733;DHT22;39139;53.144;6.244;2023-04-24T10:58:49;10.40;99.90
51733;DHT22;39139;53.144;6.244;2023-04-24T11:01:41;10.30;99.90
51733;DHT22;39139;53.144;6.244;2023-04-24T11:04:29;10.30;99.90
51733;DHT22;39139;53.144;6.244;2023-04-24T11:06:56;10.30;99.90
51733;DHT22;39139;53.144;6.244;2023-04-24T11:09:22;10.40;99.90
51733;DHT22;39139;53.144;6.244;2023-04-24T11:11:47;10.40;99.90
51733;DHT22;39139;53.144;6.244;2023-04-24T11:14:16;10.40;99.90
51733;DHT22;39139;53.144;6.244;2023-04-24T11:16:51;10.40;99.90
51733;DHT22;39139;53.144;6.244;2023-04-24T11:19:21;10.60;99.90
51733;DHT22;39139;53.144;6.244;2023-04-24T11:29:49;10.20;99.90
51733;DHT22;39139;53.144;6.244;2023-04-24T11:32:29;10.30;99.90
51733;DHT22;39139;53.144;6.244;2023-04-24T11:35:03;10.20;99.90
51733;DHT22;39139;53.144;6.244;2023-04-24T11:37:39;9.90;99.90
51733;DHT22;39139;53.144;6.244;2023-04-24T11:40:07;9.80;99.90
51733;DHT22;39139;53.144;6.244;2023-04-24T11:42:41;9.70;99.90
51733;DHT22;39139;53.144;6.244;2023-04-24T11:45:22;9.60;99.90
51733;DHT22;39139;53.144;6.244;2023-04-24T11:47:47;9.60;99.90
51733;DHT22;39139;53.144;6.244;2023-04-24T11:50:18;9.60;99.90
51733;DHT22;39139;53.144;6.244;2023-04-24T11:52:45;9.60;99.90
51733;DHT22;39139;53.144;6.244;2023-04-24T11:57:42;9.70;99.90
51733;DHT22;39139;53.144;6.244;2023-04-24T12:00:15;9.70;99.90
51733;DHT22;39139;53.144;6.244;2023-04-24T12:02:41;9.60;99.90
51733;DHT22;39139;53.144;6.244;2023-04-24T12:05:07;9.50;99.90
51733;DHT22;39139;53.144;6.244;2023-04-24T12:07:40;9.50;99.90
51733;DHT22;39139;53.144;6.244;2023-04-24T12:10:08;9.20;99.90
51733;DHT22;39139;53.144;6.244;2023-04-24T12:12:34;9.50;99.90
51733;DHT22;39139;53.144;6.244;2023-04-24T12:15:01;9.60;99.90
51733;DHT22;39139;53.144;6.244;2023-04-24T12:17:31;9.50;99.90
51733;DHT22;39139;53.144;6.244;2023-04-24T12:20:03;9.60;99.90
51733;DHT22;39139;53.144;6.244;2023-04-24T12:22:52;9.70;99.90
51733;DHT22;39139;53.144;6.244;2023-04-24T12:25:23;9.70;99.90
51733;DHT22;39139;53.144;6.244;2023-04-24T12:28:10;9.70;99.90
51733;DHT22;39139;53.144;6.244;2023-04-24T12:30:47;9.70;99.90
51733;DHT22;39139;53.144;6.244;2023-04-24T12:33:18;10.10;99.90
51733;DHT22;39139;53.144;6.244;2023-04-24T12:35:44;9.90;99.90
51733;DHT22;39139;53.144;6.244;2023-04-24T12:38:12;10.00;99.90
51733;DHT22;39139;53.144;6.244;2023-04-24T12:40:39;10.10;99.90
51733;DHT22;39139;53.144;6.244;2023-04-24T12:43:17;10.10;99.90
51733;DHT22;39139;53.144;6.244;2023-04-24T12:45:43;10.30;99.90
51733;DHT22;39139;53.144;6.244;2023-04-24T12:48:09;9.90;99.90
51733;DHT22;39139;53.144;6.244;2023-04-24T12:50:35;9.90;99.90
51733;DHT22;39139;53.144;6.244;2023-04-24T12:53:00;9.90;99.90
51733;DHT22;39139;53.144;6.244;2023-04-24T12:55:26;10.00;99.90
51733;DHT22;39139;53.144;6.244;2023-04-24T12:57:51;10.00;99.90
51733;DHT22;39139;53.144;6.244;2023-04-24T13:00:18;10.00;99.90
51733;DHT22;39139;53.144;6.244;2023-04-24T13:02:44;10.00;99.90
51733;DHT22;39139;53.144;6.244;2023-04-24T13:05:10;9.90;99.90
51733;DHT22;39139;53.144;6.244;2023-04-24T13:07:36;9.90;99.90
51733;DHT22;39139;53.144;6.244;2023-04-24T13:10:02;9.90;99.90
51733;DHT22;39139;53.144;6.244;2023-04-24T13:12:28;10.00;99.90
51733;DHT22;39139;53.144;6.244;2023-04-24T13:14:54;9.90;99.90
51733;DHT22;39139;53.144;6.244;2023-04-24T13:17:19;9.80;99.90
51733;DHT22;39139;53.144;6.244;2023-04-24T13:19:45;9.70;99.90
51733;DHT22;39139;53.144;6.244;2023-04-24T13:22:12;9.80;99.90
51733;DHT22;39139;53.144;6.244;2023-04-24T13:24:38;9.80;99.90
51733;DHT22;39139;53.144;6.244;2023-04-24T13:27:06;9.80;99.90
51733;DHT22;39139;53.144;6.244;2023-04-24T13:29:32;9.70;99.90
51733;DHT22;39139;53.144;6.244;2023-04-24T13:31:57;9.80;99.90
51733;DHT22;39139;53.144;6.244;2023-04-24T13:34:24;9.60;99.90
51733;DHT22;39139;53.144;6.244;2023-04-24T13:36:51;9.80;99.90
51733;DHT22;39139;53.144;6.244;2023-04-24T13:39:17;9.70;99.90
51733;DHT22;39139;53.144;6.244;2023-04-24T13:41:42;9.70;99.90
51733;DHT22;39139;53.144;6.244;2023-04-24T13:44:08;9.70;99.90
51733;DHT22;39139;53.144;6.244;2023-04-24T13:46:34;9.20;99.90
51733;DHT22;39139;53.144;6.244;2023-04-24T13:49:01;9.50;99.90
51733;DHT22;39139;53.144;6.244;2023-04-24T13:51:27;9.50;99.90
51733;DHT22;39139;53.144;6.244;2023-04-24T13:53:53;9.50;99.90
51733;DHT22;39139;53.144;6.244;2023-04-24T13:56:20;9.30;99.90
51733;DHT22;39139;53.144;6.244;2023-04-24T13:58:46;9.30;99.90
51733;DHT22;39139;53.144;6.244;2023-04-24T14:01:12;9.20;99.90
51733;DHT22;39139;53.144;6.244;2023-04-24T14:03:39;9.30;99.90
51733;DHT22;39139;53.144;6.244;2023-04-24T14:06:05;9.20;99.90
51733;DHT22;39139;53.144;6.244;2023-04-24T14:08:32;9.10;99.90
51733;DHT22;39139;53.144;6.244;2023-04-24T14:10:57;9.00;99.90
51733;DHT22;39139;53.144;6.244;2023-04-24T14:13:23;9.00;99.90
51733;DHT22;39139;53.144;6.244;2023-04-24T14:15:49;8.90;99.90
51733;DHT22;39139;53.144;6.244;2023-04-24T14:18:15;9.00;99.90
51733;DHT22;39139;53.144;6.244;2023-04-24T14:20:40;9.00;99.90
51733;DHT22;39139;53.144;6.244;2023-04-24T14:23:06;9.10;99.90
51733;DHT22;39139;53.144;6.244;2023-04-24T14:25:32;9.10;99.90
51733;DHT22;39139;53.144;6.244;2023-04-24T14:27:57;9.40;99.90
51733;DHT22;39139;53.144;6.244;2023-04-24T14:30:23;9.10;99.90
51733;DHT22;39139;53.144;6.244;2023-04-24T14:32:48;9.20;99.90
51733;DHT22;39139;53.144;6.244;2023-04-24T14:35:15;9.00;99.90
51733;DHT22;39139;53.144;6.244;2023-04-24T14:37:40;8.50;99.90
51733;DHT22;39139;53.144;6.244;2023-04-24T14:40:07;9.00;99.90
51733;DHT22;39139;53.144;6.244;2023-04-24T14:42:33;8.90;99.90
51733;DHT22;39139;53.144;6.244;2023-04-24T14:44:59;9.00;99.90
51733;DHT22;39139;53.144;6.244;2023-04-24T14:47:25;9.00;99.90
51733;DHT22;39139;53.144;6.244;2023-04-24T14:49:51;8.90;99.90
51733;DHT22;39139;53.144;6.244;2023-04-24T14:52:17;8.90;99.90
51733;DHT22;39139;53.144;6.244;2023-04-24T14:54:43;8.90;99.90
51733;DHT22;39139;53.144;6.244;2023-04-24T14:57:08;8.90;99.90
51733;DHT22;39139;53.144;6.244;2023-04-24T14:59:34;8.90;99.90
51733;DHT22;39139;53.144;6.244;2023-04-24T15:02:00;8.90;99.90
51733;DHT22;39139;53.144;6.244;2023-04-24T15:04:27;9.00;99.90
51733;DHT22;39139;53.144;6.244;2023-04-24T15:06:54;9.00;99.90
51733;DHT22;39139;53.144;6.244;2023-04-24T15:09:21;9.00;99.90
51733;DHT22;39139;53.144;6.244;2023-04-24T15:11:48;9.00;99.90
51733;DHT22;39139;53.144;6.244;2023-04-24T15:14:15;9.00;99.90
51733;DHT22;39139;53.144;6.244;2023-04-24T15:16:41;9.00;99.90
51733;DHT22;39139;53.144;6.244;2023-04-24T15:19:06;9.00;99.90
51733;DHT22;39139;53.144;6.244;2023-04-24T15:21:32;9.10;99.90
51733;DHT22;39139;53.144;6.244;2023-04-24T15:23:58;9.10;99.90
51733;DHT22;39139;53.144;6.244;2023-04-24T15:26:24;9.00;99.90
51733;DHT22;39139;53.144;6.244;2023-04-24T15:28:51;9.00;99.90
51733;DHT22;39139;53.144;6.244;2023-04-24T15:31:17;8.90;99.90
51733;DHT22;39139;53.144;6.244;2023-04-24T15:33:43;8.90;99.90
51733;DHT22;39139;53.144;6.244;2023-04-24T15:36:09;9.00;99.90
51733;DHT22;39139;53.144;6.244;2023-04-24T15:38:35;8.90;99.90
51733;DHT22;39139;53.144;6.244;2023-04-24T15:41:01;9.00;99.90
51733;DHT22;39139;53.144;6.244;2023-04-24T15:43:27;8.90;99.90
51733;DHT22;39139;53.144;6.244;2023-04-24T15:45:56;8.60;99.90
51733;DHT22;39139;53.144;6.244;2023-04-24T15:48:22;8.70;99.90